Time;durP1;ratioP1;P1;durP2;ratioP2;P2;SDS_P1;SDS_P2;PMS_P1;PMS_P2;Temp;Humidity;BMP_temperature;BMP_pressure;BME280_temperature;BME280_humidity;BME280_pressure;Samples;Min_cycle;Max_cycle;Signal;HPM_P1;HPM_P2
2023/06/09 00:01:36;;;;;;;;;;;;;;;15.01;100.00;95349.78;10518062;28;1903;-72
2023/06/09 00:06:39;;;;;;;;;;;;;;;14.97;100.00;95346.13;10518912;28;1166;-72
2023/06/09 00:11:41;;;;;;;;;;;;;;;14.90;100.00;95339.56;10518611;28;1555;-72
2023/06/09 00:16:46;;;;;;;;;;;;;;;14.81;100.00;95344.91;10525229;28;1760;-71
2023/06/09 00:21:51;;;;;;;;;;;;;;;14.73;100.00;95345.69;10527011;28;1902;-72
2023/06/09 00:26:53;;;;;;;;;;;;;;;14.68;100.00;95338.47;10520790;28;2895;-71
2023/06/09 00:31:56;;;;;;;;;;;;;;;14.72;100.00;95336.75;10525519;28;1236;-72
2023/06/09 00:36:59;;;;;;;;;;;;;;;14.70;100.00;95340.91;10504035;28;1722;-72
2023/06/09 00:42:02;;;;;;;;;;;;;;;14.56;100.00;95343.66;10515090;28;1891;-72
2023/06/09 00:47:06;;;;;;;;;;;;;;;14.52;100.00;95351.59;10522226;28;1135;-72
2023/06/09 00:52:09;;;;;;;;;;;;;;;14.57;100.00;95353.38;10517704;28;1511;-72
2023/06/09 00:57:12;;;;;;;;;;;;;;;14.58;100.00;95352.28;10524930;28;1216;-72
2023/06/09 01:02:15;;;;;;;;;;;;;;;14.64;100.00;95353.75;10515766;28;1906;-72
2023/06/09 01:07:20;;;;;;;;;;;;;;;14.76;100.00;95347.75;10524958;28;1174;-70
2023/06/09 01:12:23;;;;;;;;;;;;;;;14.80;100.00;95354.16;10505981;28;1508;-72
2023/06/09 01:17:26;;;;;;;;;;;;;;;14.79;100.00;95344.44;10520416;28;1514;-71
2023/06/09 01:22:28;;;;;;;;;;;;;;;14.88;100.00;95342.56;10521281;28;2366;-73
2023/06/09 01:27:31;;;;;;;;;;;;;;;14.90;100.00;95345.78;10517485;28;1196;-70
2023/06/09 01:32:33;;;;;;;;;;;;;;;14.93;100.00;95344.34;10517194;28;1590;-72
2023/06/09 01:37:36;;;;;;;;;;;;;;;14.91;100.00;95336.53;10524129;28;1231;-72
2023/06/09 01:42:39;;;;;;;;;;;;;;;14.87;100.00;95330.13;10505213;28;4725;-72
2023/06/09 01:47:42;;;;;;;;;;;;;;;14.70;100.00;95340.91;10523314;28;1202;-72
2023/06/09 01:52:44;;;;;;;;;;;;;;;14.64;100.00;95337.53;10515978;28;1534;-73
2023/06/09 01:57:47;;;;;;;;;;;;;;;14.43;100.00;95353.41;10522503;28;1133;-70
2023/06/09 02:02:50;;;;;;;;;;;;;;;14.25;100.00;95351.69;10518488;28;1890;-70
2023/06/09 02:07:53;;;;;;;;;;;;;;;14.27;100.00;95349.50;10522863;28;1170;-71
2023/06/09 02:12:56;;;;;;;;;;;;;;;14.18;100.00;95354.00;10502386;28;1503;-70
2023/06/09 02:17:58;;;;;;;;;;;;;;;14.22;100.00;95357.72;10521818;28;2341;-72
2023/06/09 02:23:01;;;;;;;;;;;;;;;14.30;100.00;95360.47;10515103;28;1981;-72
2023/06/09 02:28:04;;;;;;;;;;;;;;;14.25;100.00;95363.31;10533137;28;1446;-72
2023/06/09 02:33:07;;;;;;;;;;;;;;;14.30;100.00;95356.97;10519352;28;1233;-72
2023/06/09 02:38:11;;;;;;;;;;;;;;;14.37;100.00;95370.84;10534604;28;1432;-72
2023/06/09 02:43:13;;;;;;;;;;;;;;;14.25;100.00;95367.91;10530261;28;4675;-71
2023/06/09 02:48:16;;;;;;;;;;;;;;;14.21;100.00;95373.13;10545003;28;1189;-69
2023/06/09 02:53:19;;;;;;;;;;;;;;;14.15;100.00;95373.56;10517150;28;1384;-71
2023/06/09 02:58:24;;;;;;;;;;;;;;;14.19;100.00;95375.34;10521125;28;1204;-71
2023/06/09 03:03:28;;;;;;;;;;;;;;;14.07;100.00;95378.59;10513125;28;1890;-71
2023/06/09 03:08:31;;;;;;;;;;;;;;;14.01;100.00;95373.59;10505687;28;1376;-71
2023/06/09 03:13:33;;;;;;;;;;;;;;;13.94;100.00;95375.94;10515029;28;2397;-70
2023/06/09 03:18:36;;;;;;;;;;;;;;;13.86;100.00;95377.44;10512433;28;1145;-71
2023/06/09 03:23:38;;;;;;;;;;;;;;;13.87;100.00;95379.06;10510808;28;1890;-72
2023/06/09 03:28:41;;;;;;;;;;;;;;;13.87;100.00;95389.03;10517985;28;1459;-71
2023/06/09 03:33:43;;;;;;;;;;;;;;;13.83;100.00;95390.75;10504030;28;7677;-72
2023/06/09 03:38:46;;;;;;;;;;;;;;;13.92;100.00;95392.44;10505281;28;7713;-71
2023/06/09 03:43:48;;;;;;;;;;;;;;;13.88;100.00;95396.06;10509020;28;7800;-71
2023/06/09 03:48:51;;;;;;;;;;;;;;;13.73;100.00;95400.66;10518094;28;7638;-71
2023/06/09 03:53:54;;;;;;;;;;;;;;;13.76;100.00;95404.69;10515359;28;1393;-71
2023/06/09 03:58:57;;;;;;;;;;;;;;;13.83;100.00;95405.06;10514921;28;1324;-71
2023/06/09 04:03:59;;;;;;;;;;;;;;;13.88;100.00;95404.97;10518042;28;1946;-71
2023/06/09 04:09:03;;;;;;;;;;;;;;;14.11;100.00;95405.78;10509890;28;5279;-72
2023/06/09 04:14:06;;;;;;;;;;;;;;;14.45;100.00;95399.88;10513878;28;1361;-73
2023/06/09 04:19:09;;;;;;;;;;;;;;;14.69;100.00;95387.97;10513630;28;1392;-72
2023/06/09 04:24:11;;;;;;;;;;;;;;;14.83;100.00;95386.00;10507227;28;1906;-72
2023/06/09 04:29:15;;;;;;;;;;;;;;;15.24;100.00;95382.22;10517131;28;1365;-71
2023/06/09 04:34:18;;;;;;;;;;;;;;;15.47;100.00;95381.03;10517160;28;1455;-71
2023/06/09 04:39:20;;;;;;;;;;;;;;;15.47;100.00;95383.75;10522703;28;1208;-71
2023/06/09 04:44:23;;;;;;;;;;;;;;;15.66;100.00;95387.03;10513183;28;6199;-71
2023/06/09 04:49:26;;;;;;;;;;;;;;;15.76;100.00;95393.25;10518268;28;1181;-73
2023/06/09 04:54:29;;;;;;;;;;;;;;;16.04;100.00;95393.78;10515331;28;1451;-71
2023/06/09 04:59:31;;;;;;;;;;;;;;;16.02;100.00;95396.00;10507554;28;1357;-71
2023/06/09 05:04:34;;;;;;;;;;;;;;;16.11;100.00;95404.97;10525581;28;1964;-70
2023/06/09 05:09:36;;;;;;;;;;;;;;;16.53;100.00;95408.78;10524201;28;1452;-71
2023/06/09 05:14:39;;;;;;;;;;;;;;;16.19;100.00;95406.88;10521029;28;1353;-72
2023/06/09 05:19:42;;;;;;;;;;;;;;;16.92;100.00;95407.84;10518902;28;1408;-71
2023/06/09 05:24:47;;;;;;;;;;;;;;;16.53;100.00;95419.63;10523950;28;1894;-70
2023/06/09 05:29:52;;;;;;;;;;;;;;;16.47;100.00;95420.91;10521046;28;1642;-70
2023/06/09 05:34:54;;;;;;;;;;;;;;;17.10;100.00;95416.72;10513964;28;1382;-71
2023/06/09 05:39:57;;;;;;;;;;;;;;;17.36;100.00;95421.28;10523465;28;5345;-71
2023/06/09 05:44:59;;;;;;;;;;;;;;;17.60;100.00;95416.06;10518859;28;1973;-71
2023/06/09 05:50:01;;;;;;;;;;;;;;;17.76;100.00;95419.88;10522635;28;1165;-71
2023/06/09 05:55:04;;;;;;;;;;;;;;;18.66;100.00;95415.09;10516004;28;1387;-70
2023/06/09 06:00:09;;;;;;;;;;;;;;;18.78;100.00;95415.19;10521650;28;1397;-72
2023/06/09 06:05:13;;;;;;;;;;;;;;;18.75;100.00;95411.19;10520404;28;1918;-72
2023/06/09 06:10:17;;;;;;;;;;;;;;;19.39;100.00;95415.34;10516532;28;1429;-71
2023/06/09 06:15:19;;;;;;;;;;;;;;;19.61;100.00;95414.97;10517725;28;1339;-72
2023/06/09 06:20:21;;;;;;;;;;;;;;;19.87;100.00;95411.91;10521729;28;1443;-71
2023/06/09 06:25:25;;;;;;;;;;;;;;;19.58;100.00;95420.28;10520674;28;1926;-72
2023/06/09 06:30:29;;;;;;;;;;;;;;;19.57;100.00;95414.00;10522528;28;1237;-73
2023/06/09 06:35:31;;;;;;;;;;;;;;;20.08;100.00;95413.69;10513522;28;2364;-71
2023/06/09 06:40:33;;;;;;;;;;;;;;;19.96;100.00;95415.28;10517632;28;1208;-72
2023/06/09 06:45:36;;;;;;;;;;;;;;;20.22;100.00;95412.19;10519485;28;1925;-73
2023/06/09 06:50:40;;;;;;;;;;;;;;;20.90;100.00;95408.72;10512162;28;1312;-72
2023/06/09 06:55:42;;;;;;;;;;;;;;;20.45;100.00;95409.78;10520505;28;1052;-72
2023/06/09 07:00:46;;;;;;;;;;;;;;;21.07;100.00;95413.09;10519034;28;1329;-72
2023/06/09 07:05:48;;;;;;;;;;;;;;;20.91;100.00;95420.44;10519257;28;1891;-73
2023/06/09 07:10:51;;;;;;;;;;;;;;;21.02;100.00;95424.28;10519448;28;1348;-71
2023/06/09 07:15:53;;;;;;;;;;;;;;;21.07;100.00;95423.25;10516244;28;1535;-71
2023/06/09 07:20:55;;;;;;;;;;;;;;;21.41;100.00;95422.59;10513143;28;1431;-73
2023/06/09 07:25:58;;;;;;;;;;;;;;;21.04;100.00;95422.78;10519451;28;1911;-72
2023/06/09 07:31:00;;;;;;;;;;;;;;;20.63;100.00;95425.91;10515942;28;2058;-72
2023/06/09 07:36:03;;;;;;;;;;;;;;;20.49;100.00;95426.28;10516049;28;1271;-72
2023/06/09 07:41:05;;;;;;;;;;;;;;;20.40;100.00;95420.13;10508055;28;5183;-71
2023/06/09 07:46:10;;;;;;;;;;;;;;;21.01;100.00;95412.56;10520942;28;1947;-72
2023/06/09 07:51:14;;;;;;;;;;;;;;;21.16;100.00;95413.72;10517864;28;1410;-72
2023/06/09 07:56:16;;;;;;;;;;;;;;;21.02;100.00;95414.13;10518625;28;1181;-73
2023/06/09 08:01:19;;;;;;;;;;;;;;;20.77;100.00;95415.38;10517085;28;1416;-72
2023/06/09 08:06:21;;;;;;;;;;;;;;;20.83;100.00;95414.00;10511151;28;1891;-72
2023/06/09 08:11:26;;;;;;;;;;;;;;;21.40;100.00;95410.09;10513858;28;1387;-73
2023/06/09 08:16:28;;;;;;;;;;;;;;;21.71;100.00;95408.50;10517697;28;1254;-73
2023/06/09 08:21:30;;;;;;;;;;;;;;;21.35;100.00;95402.13;10510386;28;1419;-72
2023/06/09 08:26:33;;;;;;;;;;;;;;;21.66;100.00;95400.56;10502659;28;1914;-73
2023/06/09 08:31:37;;;;;;;;;;;;;;;22.33;100.00;95407.66;10511343;28;1587;-73
2023/06/09 08:36:40;;;;;;;;;;;;;;;22.26;100.00;95412.94;10524732;28;1191;-73
2023/06/09 08:41:42;;;;;;;;;;;;;;;22.01;100.00;95408.81;10516968;28;5112;-73
2023/06/09 08:46:45;;;;;;;;;;;;;;;22.58;100.00;95408.16;10525008;28;1902;-72
2023/06/09 08:51:48;;;;;;;;;;;;;;;21.05;100.00;95404.44;10526064;28;1186;-72
2023/06/09 08:56:52;;;;;;;;;;;;;;;21.98;100.00;95402.13;10508937;28;1641;-72
2023/06/09 09:01:55;;;;;;;;;;;;;;;22.57;100.00;95390.16;10526718;28;1126;-72
2023/06/09 09:06:58;;;;;;;;;;;;;;;22.15;100.00;95394.72;10524343;28;1883;-72
2023/06/09 09:12:00;;;;;;;;;;;;;;;22.55;100.00;95397.16;10521518;28;1432;-73
2023/06/09 09:17:03;;;;;;;;;;;;;;;23.62;100.00;95386.31;10526350;28;1198;-73
2023/06/09 09:22:05;;;;;;;;;;;;;;;23.86;100.00;95395.34;10522660;28;2299;-73
2023/06/09 09:27:08;;;;;;;;;;;;;;;22.58;100.00;95375.31;10524633;28;1991;-73
2023/06/09 09:32:11;;;;;;;;;;;;;;;22.76;100.00;95372.94;10514837;28;1273;-73
2023/06/09 09:37:13;;;;;;;;;;;;;;;22.86;100.00;95380.59;10522526;28;1419;-73
2023/06/09 09:42:16;;;;;;;;;;;;;;;23.68;100.00;95375.84;10518479;28;1424;-73
2023/06/09 09:47:19;;;;;;;;;;;;;;;22.94;100.00;95378.78;10516007;28;1957;-73
2023/06/09 09:52:22;;;;;;;;;;;;;;;22.92;100.00;95375.63;10524639;28;1169;-73
2023/06/09 09:57:25;;;;;;;;;;;;;;;23.38;100.00;95370.19;10523670;28;1725;-72
2023/06/09 10:02:27;;;;;;;;;;;;;;;23.73;100.00;95359.06;10520593;28;1407;-73
2023/06/09 10:07:33;;;;;;;;;;;;;;;24.92;96.86;95357.53;10523703;28;1910;-72
2023/06/09 10:12:36;;;;;;;;;;;;;;;23.50;100.00;95353.56;10512528;28;1364;-72
2023/06/09 10:17:39;;;;;;;;;;;;;;;23.64;100.00;95351.06;10522124;28;2313;-73
2023/06/09 10:22:42;;;;;;;;;;;;;;;24.59;100.00;95347.34;10520307;28;1416;-73
2023/06/09 10:27:44;;;;;;;;;;;;;;;24.04;99.80;95349.72;10518181;28;1894;-72
2023/06/09 10:32:49;;;;;;;;;;;;;;;23.60;100.00;95339.22;10521103;28;1204;-74
2023/06/09 10:37:51;;;;;;;;;;;;;;;25.32;96.22;95331.25;10514966;28;1443;-72
2023/06/09 10:42:54;;;;;;;;;;;;;;;26.12;86.12;95329.53;10510552;28;5201;-74
2023/06/09 10:47:56;;;;;;;;;;;;;;;25.28;90.58;95334.00;10513179;28;1980;-72
2023/06/09 10:52:59;;;;;;;;;;;;;;;24.49;91.67;95328.75;10520488;28;1270;-73
2023/06/09 10:58:02;;;;;;;;;;;;;;;25.34;83.13;95329.72;10514177;28;1424;-72
2023/06/09 11:03:04;;;;;;;;;;;;;;;25.53;78.59;95325.16;10520579;28;1240;-72
2023/06/09 11:08:07;;;;;;;;;;;;;;;25.47;79.74;95316.47;10515825;28;1985;-72
2023/06/09 11:13:11;;;;;;;;;;;;;;;25.68;73.78;95318.59;10515209;28;1337;-72
2023/06/09 11:18:13;;;;;;;;;;;;;;;25.66;69.13;95317.41;10519852;28;1211;-73
2023/06/09 11:23:16;;;;;;;;;;;;;;;25.12;72.88;95307.88;10513195;28;1483;-73
2023/06/09 11:28:18;;;;;;;;;;;;;;;25.24;66.51;95300.16;10519877;28;1921;-73
2023/06/09 11:33:21;;;;;;;;;;;;;;;24.50;68.74;95300.16;10518283;28;1424;-73
2023/06/09 11:38:23;;;;;;;;;;;;;;;24.71;69.97;95299.59;10519161;28;1051;-72
2023/06/09 11:43:26;;;;;;;;;;;;;;;24.40;70.80;95296.09;10499813;28;5160;-72
2023/06/09 11:48:28;;;;;;;;;;;;;;;24.52;64.95;95284.84;10514148;28;1961;-75
2023/06/09 11:53:32;;;;;;;;;;;;;;;24.99;69.51;95280.63;10519100;28;1161;-72
2023/06/09 11:58:35;;;;;;;;;;;;;;;24.60;64.25;95293.19;10517844;28;1412;-73
2023/06/09 12:03:38;;;;;;;;;;;;;;;24.61;62.66;95290.03;10515611;28;1420;-72
2023/06/09 12:08:41;;;;;;;;;;;;;;;24.24;65.20;95281.75;10514397;28;1899;-73
2023/06/09 12:13:43;;;;;;;;;;;;;;;24.22;60.96;95281.31;10517215;28;2386;-73
2023/06/09 12:18:45;;;;;;;;;;;;;;;24.05;63.56;95277.19;10526920;28;1189;-73
2023/06/09 12:23:48;;;;;;;;;;;;;;;24.13;62.98;95270.63;10518986;28;1095;-73
2023/06/09 12:28:50;;;;;;;;;;;;;;;24.56;60.65;95271.16;10520626;28;1910;-74
2023/06/09 12:33:56;;;;;;;;;;;;;;;24.74;54.12;95272.13;10527072;28;1177;-72
2023/06/09 12:38:58;;;;;;;;;;;;;;;25.07;50.92;95262.28;10524605;28;1400;-73
2023/06/09 12:44:01;;;;;;;;;;;;;;;24.77;51.10;95270.59;10520602;28;5501;-72
2023/06/09 12:49:03;;;;;;;;;;;;;;;24.80;49.98;95265.13;10524959;28;1949;-72
2023/06/09 12:54:06;;;;;;;;;;;;;;;24.76;49.00;95253.31;10522860;28;1369;-72
2023/06/09 12:59:09;;;;;;;;;;;;;;;24.95;51.73;95248.78;10525527;28;1130;-72
2023/06/09 13:04:11;;;;;;;;;;;;;;;24.87;54.49;95255.38;10517794;28;1379;-72
2023/06/09 13:09:14;;;;;;;;;;;;;;;25.55;50.22;95243.81;10523671;28;1914;-72
2023/06/09 13:14:16;;;;;;;;;;;;;;;25.76;45.99;95254.19;10519146;28;1427;-72
2023/06/09 13:19:19;;;;;;;;;;;;;;;26.10;46.02;95240.22;10523328;28;1174;-74
2023/06/09 13:24:21;;;;;;;;;;;;;;;25.94;47.96;95243.28;10515963;28;1377;-73
2023/06/09 13:29:24;;;;;;;;;;;;;;;25.54;48.44;95241.44;10523444;28;1957;-73
2023/06/09 13:34:26;;;;;;;;;;;;;;;25.79;46.20;95241.63;10522891;28;1555;-74
2023/06/09 13:39:29;;;;;;;;;;;;;;;25.13;46.38;95238.78;10522203;28;1309;-72
2023/06/09 13:44:31;;;;;;;;;;;;;;;25.74;45.52;95231.75;10511320;28;5637;-73
2023/06/09 13:49:34;;;;;;;;;;;;;;;25.73;46.07;95221.94;10523608;28;1913;-73
2023/06/09 13:54:36;;;;;;;;;;;;;;;25.33;45.95;95226.34;10521280;28;1421;-73
2023/06/09 13:59:39;;;;;;;;;;;;;;;24.85;45.48;95219.22;10518917;28;1395;-73
2023/06/09 14:04:41;;;;;;;;;;;;;;;25.45;45.63;95224.44;10514743;28;2322;-73
2023/06/09 14:09:44;;;;;;;;;;;;;;;25.61;44.64;95216.72;10514449;28;1898;-73
2023/06/09 14:14:47;;;;;;;;;;;;;;;25.74;45.16;95209.75;10507762;28;1416;-73
2023/06/09 14:19:49;;;;;;;;;;;;;;;26.02;44.34;95208.31;10521642;28;1185;-73
2023/06/09 14:24:51;;;;;;;;;;;;;;;25.88;43.49;95196.03;10519752;28;1615;-73
2023/06/09 14:29:54;;;;;;;;;;;;;;;25.93;43.19;95207.88;10520576;28;1894;-73
2023/06/09 14:34:56;;;;;;;;;;;;;;;25.04;46.30;95205.25;10521394;28;1177;-73
2023/06/09 14:39:59;;;;;;;;;;;;;;;25.37;46.56;95198.06;10519467;28;5104;-74
2023/06/09 14:45:01;;;;;;;;;;;;;;;26.30;43.75;95202.13;10517849;28;1388;-74
2023/06/09 14:50:04;;;;;;;;;;;;;;;26.07;43.72;95199.66;10520281;28;1960;-73
2023/06/09 14:55:06;;;;;;;;;;;;;;;25.43;46.04;95186.31;10516593;28;1619;-73
2023/06/09 15:00:09;;;;;;;;;;;;;;;26.10;44.50;95190.66;10518060;28;2225;-72
2023/06/09 15:05:12;;;;;;;;;;;;;;;26.25;43.46;95184.00;10520907;28;1967;-72
2023/06/09 15:10:15;;;;;;;;;;;;;;;25.68;43.75;95183.72;10513353;28;1541;-72
2023/06/09 15:15:17;;;;;;;;;;;;;;;25.18;42.23;95191.66;10513213;28;1412;-73
2023/06/09 15:20:24;;;;;;;;;;;;;;;25.51;42.25;95187.16;10517642;28;1293;-73
2023/06/09 15:25:28;;;;;;;;;;;;;;;25.81;41.25;95189.72;10519288;28;1906;-74
2023/06/09 15:30:31;;;;;;;;;;;;;;;26.00;41.30;95178.41;10513503;28;1368;-73
2023/06/09 15:35:34;;;;;;;;;;;;;;;26.07;38.18;95180.41;10509470;28;1368;-72
2023/06/09 15:40:36;;;;;;;;;;;;;;;25.62;41.09;95182.50;10518824;28;5356;-71
2023/06/09 15:45:39;;;;;;;;;;;;;;;25.21;43.84;95179.91;10510945;28;1906;-73
2023/06/09 15:50:41;;;;;;;;;;;;;;;25.56;42.87;95181.28;10506916;28;1606;-74
2023/06/09 15:55:43;;;;;;;;;;;;;;;25.30;42.29;95177.59;10513602;28;2330;-73
2023/06/09 16:00:46;;;;;;;;;;;;;;;24.93;43.54;95171.38;10511339;28;1385;-73
2023/06/09 16:05:49;;;;;;;;;;;;;;;25.09;43.36;95174.69;10518083;28;1894;-74
2023/06/09 16:10:52;;;;;;;;;;;;;;;25.00;43.65;95164.00;10510746;28;1415;-73
2023/06/09 16:15:54;;;;;;;;;;;;;;;24.49;44.21;95172.16;10510051;28;1641;-73
2023/06/09 16:20:57;;;;;;;;;;;;;;;24.15;46.61;95176.88;10513672;28;1381;-72
2023/06/09 16:25:59;;;;;;;;;;;;;;;24.47;46.69;95175.28;10518071;28;1972;-72
2023/06/09 16:31:02;;;;;;;;;;;;;;;24.43;46.95;95169.00;10516659;28;1444;-72
2023/06/09 16:36:05;;;;;;;;;;;;;;;24.18;48.30;95176.94;10528930;28;2079;-73
2023/06/09 16:41:08;;;;;;;;;;;;;;;24.13;45.79;95171.78;10509551;28;5121;-72
2023/06/09 16:46:10;;;;;;;;;;;;;;;24.22;46.51;95175.00;10510628;28;1932;-74
2023/06/09 16:51:13;;;;;;;;;;;;;;;24.15;45.57;95166.69;10514711;28;1408;-73
2023/06/09 16:56:16;;;;;;;;;;;;;;;24.05;46.36;95174.78;10522122;28;2651;-73
2023/06/09 17:01:19;;;;;;;;;;;;;;;23.96;46.96;95175.09;10510316;28;1345;-72
2023/06/09 17:06:22;;;;;;;;;;;;;;;23.84;48.41;95170.63;10524285;28;2000;-73
2023/06/09 17:11:25;;;;;;;;;;;;;;;23.76;49.44;95179.16;10515479;28;1428;-73
2023/06/09 17:16:27;;;;;;;;;;;;;;;23.67;50.66;95171.22;10519884;28;1233;-72
2023/06/09 17:21:33;;;;;;;;;;;;;;;23.62;52.27;95177.81;10522307;28;1488;-73
2023/06/09 17:26:36;;;;;;;;;;;;;;;23.54;54.43;95172.53;10523036;28;1993;-73
2023/06/09 17:31:39;;;;;;;;;;;;;;;23.58;55.52;95174.19;10518889;28;1388;-72
2023/06/09 17:36:41;;;;;;;;;;;;;;;23.54;54.83;95178.84;10518746;28;1447;-74
2023/06/09 17:41:44;;;;;;;;;;;;;;;23.49;56.23;95184.66;10520872;28;5799;-73
2023/06/09 17:46:47;;;;;;;;;;;;;;;23.39;55.00;95183.31;10524074;28;1891;-72
2023/06/09 17:51:50;;;;;;;;;;;;;;;23.28;56.58;95181.59;10514922;28;2270;-72
2023/06/09 17:56:53;;;;;;;;;;;;;;;23.19;56.51;95179.13;10532294;28;1369;-72
2023/06/09 18:01:55;;;;;;;;;;;;;;;23.09;56.57;95190.69;10520118;28;1536;-73
2023/06/09 18:06:58;;;;;;;;;;;;;;;23.03;56.71;95184.75;10521533;28;1910;-72
2023/06/09 18:12:01;;;;;;;;;;;;;;;22.91;57.12;95184.94;10507174;28;1487;-74
2023/06/09 18:17:04;;;;;;;;;;;;;;;22.87;57.86;95181.34;10521704;28;1115;-71
2023/06/09 18:22:07;;;;;;;;;;;;;;;22.71;61.20;95175.16;10513684;28;1383;-72
2023/06/09 18:27:12;;;;;;;;;;;;;;;22.58;63.55;95180.03;10520938;28;1883;-73
2023/06/09 18:32:15;;;;;;;;;;;;;;;22.44;66.74;95185.25;10515834;28;1634;-73
2023/06/09 18:37:18;;;;;;;;;;;;;;;22.35;70.77;95182.75;10512581;28;1379;-73
2023/06/09 18:42:21;;;;;;;;;;;;;;;22.15;76.50;95192.16;10512598;28;5094;-73
2023/06/09 18:47:23;;;;;;;;;;;;;;;22.09;78.68;95177.97;10513463;28;2380;-72
2023/06/09 18:52:26;;;;;;;;;;;;;;;21.76;83.43;95176.53;10519378;28;1408;-73
2023/06/09 18:57:31;;;;;;;;;;;;;;;21.68;85.69;95185.72;10520728;28;1241;-73
2023/06/09 19:02:33;;;;;;;;;;;;;;;21.65;84.09;95191.13;10516571;28;1733;-73
2023/06/09 19:07:36;;;;;;;;;;;;;;;21.51;84.63;95197.06;10514245;28;1890;-72
2023/06/09 19:12:39;;;;;;;;;;;;;;;21.34;86.96;95192.00;10519047;28;1380;-72
2023/06/09 19:17:42;;;;;;;;;;;;;;;21.24;88.26;95194.09;10518634;28;1194;-71
2023/06/09 19:22:45;;;;;;;;;;;;;;;21.11;90.93;95194.56;10517298;28;1445;-72
2023/06/09 19:27:49;;;;;;;;;;;;;;;21.01;93.13;95210.34;10517689;28;1914;-72
2023/06/09 19:32:52;;;;;;;;;;;;;;;20.87;95.86;95212.75;10518442;28;1186;-72
2023/06/09 19:37:55;;;;;;;;;;;;;;;20.67;98.29;95224.69;10511829;28;1413;-71
2023/06/09 19:43:01;;;;;;;;;;;;;;;20.52;100.00;95224.34;10517569;28;5085;-73
2023/06/09 19:48:04;;;;;;;;;;;;;;;20.42;100.00;95229.47;10518803;28;1956;-73
2023/06/09 19:53:07;;;;;;;;;;;;;;;20.31;100.00;95234.66;10533540;28;1585;-72
2023/06/09 19:58:10;;;;;;;;;;;;;;;20.16;100.00;95238.13;10518017;28;1447;-72
2023/06/09 20:03:13;;;;;;;;;;;;;;;19.93;100.00;95240.63;10519125;28;1182;-73
2023/06/09 20:08:16;;;;;;;;;;;;;;;19.97;100.00;95246.94;10515866;28;1910;-72
2023/06/09 20:13:18;;;;;;;;;;;;;;;20.02;100.00;95248.66;10517066;28;1453;-73
2023/06/09 20:18:22;;;;;;;;;;;;;;;20.06;100.00;95242.16;10518326;28;1208;-73
2023/06/09 20:23:30;;;;;;;;;;;;;;;19.97;100.00;95238.75;10513480;28;1587;-72
2023/06/09 20:28:33;;;;;;;;;;;;;;;19.89;100.00;95234.25;10515705;28;1984;-71
2023/06/09 20:33:36;;;;;;;;;;;;;;;19.76;100.00;95233.50;10525911;28;1188;-74
2023/06/09 20:38:39;;;;;;;;;;;;;;;19.67;100.00;95243.75;10511535;28;2440;-71
2023/06/09 20:43:41;;;;;;;;;;;;;;;19.63;100.00;95243.63;10524431;28;5141;-72
2023/06/09 20:48:44;;;;;;;;;;;;;;;19.53;100.00;95246.00;10525450;28;1957;-72
2023/06/09 20:53:46;;;;;;;;;;;;;;;19.24;100.00;95247.88;10524314;28;1383;-74
2023/06/09 20:58:49;;;;;;;;;;;;;;;19.29;100.00;95239.47;10524843;28;1325;-74
2023/06/09 21:03:51;;;;;;;;;;;;;;;19.10;100.00;95252.88;10525083;28;1193;-72
2023/06/09 21:08:55;;;;;;;;;;;;;;;18.97;100.00;95264.88;10524229;28;1895;-74
2023/06/09 21:13:57;;;;;;;;;;;;;;;18.83;100.00;95260.56;10522624;28;1403;-72
2023/06/09 21:19:00;;;;;;;;;;;;;;;18.73;100.00;95255.53;10524957;28;1162;-72
2023/06/09 21:24:03;;;;;;;;;;;;;;;18.63;100.00;95245.06;10517633;28;1404;-72
2023/06/09 21:29:05;;;;;;;;;;;;;;;18.48;100.00;95257.38;10524079;28;1894;-73
2023/06/09 21:34:08;;;;;;;;;;;;;;;18.33;100.00;95253.38;10520256;28;2345;-72
2023/06/09 21:39:11;;;;;;;;;;;;;;;18.20;100.00;95261.84;10517560;28;1452;-73
2023/06/09 21:44:13;;;;;;;;;;;;;;;18.09;100.00;95259.53;10518093;28;6311;-73
2023/06/09 21:49:16;;;;;;;;;;;;;;;17.96;100.00;95262.53;10522858;28;1987;-73
2023/06/09 21:54:19;;;;;;;;;;;;;;;17.88;100.00;95271.53;10514299;28;1642;-72
2023/06/09 21:59:21;;;;;;;;;;;;;;;17.78;100.00;95272.75;10521696;28;1408;-71
2023/06/09 22:04:24;;;;;;;;;;;;;;;17.69;100.00;95270.06;10520282;28;1397;-72
2023/06/09 22:09:27;;;;;;;;;;;;;;;17.57;100.00;95261.84;10522057;28;1895;-72
2023/06/09 22:14:29;;;;;;;;;;;;;;;17.53;100.00;95266.31;10519677;28;1548;-72
2023/06/09 22:19:35;;;;;;;;;;;;;;;17.45;100.00;95259.03;10517026;28;1424;-72
2023/06/09 22:24:38;;;;;;;;;;;;;;;17.42;100.00;95262.38;10518105;28;1432;-73
2023/06/09 22:29:41;;;;;;;;;;;;;;;17.32;100.00;95257.34;10520838;28;2289;-73
2023/06/09 22:34:44;;;;;;;;;;;;;;;17.25;100.00;95261.38;10521337;28;1380;-72
2023/06/09 22:39:48;;;;;;;;;;;;;;;17.12;100.00;95262.41;10521865;28;5148;-72
2023/06/09 22:44:51;;;;;;;;;;;;;;;17.05;100.00;95261.31;10519649;28;1379;-72
2023/06/09 22:49:54;;;;;;;;;;;;;;;16.99;100.00;95263.44;10517839;28;1979;-72
2023/06/09 22:54:56;;;;;;;;;;;;;;;16.95;100.00;95267.91;10517917;28;1079;-72
2023/06/09 22:59:59;;;;;;;;;;;;;;;16.89;100.00;95261.06;10515234;28;1423;-72
2023/06/09 23:05:13;;;;;;;;;;;;;;;16.82;100.00;95266.22;10520568;28;1147;-73
2023/06/09 23:10:16;;;;;;;;;;;;;;;16.72;100.00;95261.94;10512790;28;1981;-72
2023/06/09 23:15:20;;;;;;;;;;;;;;;16.61;100.00;95261.47;10512670;28;1773;-72
2023/06/09 23:20:23;;;;;;;;;;;;;;;16.53;100.00;95258.78;10518984;28;1420;-72
2023/06/09 23:25:25;;;;;;;;;;;;;;;16.43;100.00;95265.34;10512558;28;2280;-72
2023/06/09 23:30:29;;;;;;;;;;;;;;;16.40;100.00;95257.84;10517633;28;1987;-72
2023/06/09 23:35:33;;;;;;;;;;;;;;;16.29;100.00;95245.75;10518905;28;1176;-72
2023/06/09 23:40:36;;;;;;;;;;;;;;;16.23;100.00;95250.56;10518615;28;5188;-72
2023/06/09 23:45:39;;;;;;;;;;;;;;;16.15;100.00;95254.06;10516411;28;1547;-72
2023/06/09 23:50:41;;;;;;;;;;;;;;;16.04;100.00;95244.69;10519435;28;1887;-71
2023/06/09 23:55:44;;;;;;;;;;;;;;;16.02;100.00;95244.97;10514859;28;1173;-72
